Flight Track Log - Related Links

Times and Time Zones

All times are in EDT time to prevent confusion due to time zone crossing. See the LXJ342 flight status page for this flight to view local times or setup timezone preferences in your user account.

Time Position Orientation Groundspeed Altitude Reporting Facility
EDT Latitude Longitude Course Direction KTS MPH feet Rate Location/Type
Sun 08:15:53 PM 29.6728 -95.2389 34° Northeast 238 274 4,200  Level Houston Center
Sun 08:17:05 PM 29.7553 -95.2739 340° North 276 318 8,400 3,429 Climbing Houston Center
Sun 08:18:06 PM 29.8375 -95.3081 340° North 303 349 11,800 3,415 Climbing Houston Center
Sun 08:19:08 PM 29.9322 -95.3389 344° North 346 398 15,400 2,878 Climbing Houston Center
Sun 08:20:09 PM 30.0367 -95.3617 349° North 382 440 17,700 2,341 Climbing Houston Center
Sun 08:21:11 PM 30.1444 -95.3869 349° North 396 456 20,200 2,323 Climbing Houston Center
Sun 08:22:13 PM 30.2556 -95.4114 349° North 404 465 22,500 2,390 Climbing Houston Center
Sun 08:23:14 PM 30.3664 -95.4375 349° North 405 466 25,100 2,244 Climbing Houston Center
Sun 08:24:16 PM 30.5019 -95.4664 350° North 413 475 27,100 1,415 Climbing Houston Center
Sun 08:25:17 PM 30.6208 -95.4947 348° North 434 499 28,000 439 Climbing Houston Center
Sun 08:26:19 PM 30.7317 -95.5203 349° North 444 511 28,000  Level Houston Center
Sun 08:27:20 PM 30.8792 -95.5531 349° North 449 517 28,000  Level Houston Center
Sun 08:28:22 PM 31.0061 -95.5817 349° North 458 527 28,000  Level Houston Center
Sun 08:29:24 PM 31.1297 -95.6103 349° North 451 519 28,000 -244 Level Houston Center
Sun 08:30:25 PM 31.2542 -95.6381 349° North 451 519 27,500 -1,220 Descending Houston Center
Sun 08:31:27 PM 31.3775 -95.6786 344° North 459 528 25,500 -1,512 Descending Houston Center
Sun 08:32:28 PM 31.4856 -95.7467 332° Northwest 437 503 24,400 -732 Descending Houston Center
Sun 08:33:30 PM 31.5903 -95.8161 331° Northwest 433 498 24,000 -919 Descending Houston Center
Sun 08:34:32 PM 31.6967 -95.8869 330° Northwest 436 502 22,500 -2,000 Descending Houston Center
Sun 08:35:33 PM 31.7997 -95.9547 331° Northwest 423 487 19,900 -2,439 Descending Houston Center
Sun 08:36:35 PM 31.8964 -96.0194 330° Northwest 402 463 17,500 -2,585 Descending Houston Center
Sun 08:37:36 PM 32.0083 -96.0961 330° Northwest 390 449 14,600 -2,585 Descending Houston Center
Sun 08:38:38 PM 32.1000 -96.1564 331° Northwest 380 437 12,200 -2,195 Descending Houston Center
Sun 08:39:39 PM 32.1892 -96.2172 330° Northwest 372 428 10,100 -1,200 Descending Houston Center
Sun 08:40:28 PM 32.2667 -96.2667 332° Northwest 365 420 10,000 -124 Descending Dallas / Fort Worth TRACON
Sun 08:41:16 PM 32.3333 -96.3000 337° Northwest 328 377 9,900 -494 Descending Dallas / Fort Worth TRACON
Sun 08:41:53 PM 32.3842 -96.3383 328° Northwest 340 391 9,300 -680 Descending Fort Worth Center
Sun 08:42:53 PM 32.4597 -96.3817 334° Northwest 312 359 8,800 -800 Descending Fort Worth Center
Sun 08:43:53 PM 32.5353 -96.4278 333° Northwest 306 352 7,700 -1,000 Descending Fort Worth Center
Sun 08:44:53 PM 32.6086 -96.4736 332° Northwest 306 352 6,800 -1,000 Descending Fort Worth Center
Sun 08:45:53 PM 32.6800 -96.5200 331° Northwest 300 345 5,700 -900 Descending Fort Worth Center
Sun 08:46:53 PM 32.7408 -96.5786 321° Northwest 290 334 5,000 -350 Descending Fort Worth Center
Sun 08:47:53 PM 32.7933 -96.6325 319° Northwest 285 328 5,000 -450 Level Fort Worth Center
Sun 08:48:53 PM 32.8522 -96.6939 319° Northwest 263 303 4,100 -1,000 Descending Fort Worth Center
Sun 08:49:53 PM 32.9006 -96.7381 323° Northwest 258 297 3,000 -550 Descending Fort Worth Center
Sun 08:50:53 PM 32.9592 -96.7772 331° Northwest 233 268 3,000  Level Fort Worth Center
Sun 08:51:53 PM 32.9803 -96.8289 296° West 191 220 3,000 -150 Level Fort Worth Center
Sun 08:52:53 PM 32.9514 -96.8886 240° Southwest 180 207 2,700 -600 Descending Fort Worth Center
Sun 08:53:53 PM 32.9075 -96.9136 206° Southwest 163 188 1,800 -800 Descending Fort Worth Center
Sun 08:54:53 PM 32.8803 -96.8817 135° Southeast 117 135 1,100 -700 Descending Fort Worth Center

Login

Don't have an account? Register now (free) for customized features, flight alerts, and more!